Time;durP1;ratioP1;P1;durP2;ratioP2;P2;SDS_P1;SDS_P2;PMS_P1;PMS_P2;Temp;Humidity;BMP_temperature;BMP_pressure;BME280_temperature;BME280_humidity;BME280_pressure;Samples;Min_cycle;Max_cycle;Signal;HPM_P1;HPM_P2
2022/06/22 00:01:28;;;;;;;7.80;4.28;;;;;;;16.42;60.51;101258.47;5056294;28;20029;-63
2022/06/22 00:03:59;;;;;;;6.53;3.65;;;;;;;16.32;61.89;101278.13;5056471;28;20040;-63
2022/06/22 00:06:40;;;;;;;4.75;3.80;;;;;;;16.35;61.37;101265.63;5056091;28;20065;-62
2022/06/22 00:09:07;;;;;;;6.73;4.20;;;;;;;16.21;62.41;101276.38;5056229;28;20033;-62
2022/06/22 00:11:35;;;;;;;7.75;4.15;;;;;;;16.01;63.33;101264.91;5056142;28;20055;-61
2022/06/22 00:14:02;;;;;;;10.73;3.90;;;;;;;15.99;63.11;101264.94;5055967;28;20029;-62
2022/06/22 00:16:33;;;;;;;8.77;4.13;;;;;;;15.88;63.93;101257.88;5056170;28;20025;-63
2022/06/22 00:18:59;;;;;;;10.38;4.68;;;;;;;15.87;64.43;101256.13;5056098;28;20039;-62
2022/06/22 00:21:33;;;;;;;6.80;4.32;;;;;;;15.76;64.67;101256.16;5055891;28;20052;-62
2022/06/22 00:24:20;;;;;;;6.82;4.65;;;;;;;15.64;65.39;101248.19;5055771;28;20029;-62
2022/06/22 00:26:48;;;;;;;9.98;4.85;;;;;;;15.60;65.23;101239.31;5055737;28;20390;-62
2022/06/22 00:29:13;;;;;;;10.43;4.75;;;;;;;15.60;65.80;101241.09;5055523;28;20085;-62
2022/06/22 00:31:59;;;;;;;8.75;4.63;;;;;;;15.67;64.16;101249.09;5055650;28;20108;-62
2022/06/22 00:34:34;;;;;;;10.65;4.90;;;;;;;15.68;65.26;101248.19;5055564;28;20017;-62
2022/06/22 00:37:04;;;;;;;9.85;5.00;;;;;;;15.73;65.48;101257.06;5055862;28;20029;-62
2022/06/22 00:39:29;;;;;;;7.72;4.63;;;;;;;15.80;64.67;101244.56;5056088;28;20025;-62
2022/06/22 00:42:15;;;;;;;9.93;5.18;;;;;;;15.91;64.37;101244.53;5055449;28;20028;-62
2022/06/22 00:44:56;;;;;;;10.05;4.93;;;;;;;15.84;65.12;101237.47;5054491;28;20024;-62
2022/06/22 00:47:27;;;;;;;8.13;4.93;;;;;;;15.77;65.83;101239.28;5055505;28;20478;-62
2022/06/22 00:50:00;;;;;;;11.45;5.43;;;;;;;15.71;66.16;101252.63;5055662;28;20163;-62
2022/06/22 00:52:39;;;;;;;8.90;5.28;;;;;;;15.73;65.77;101253.50;5055378;28;20382;-62
2022/06/22 00:55:26;;;;;;;9.82;5.38;;;;;;;15.76;65.71;101254.38;5055527;28;20025;-62
2022/06/22 00:58:04;;;;;;;12.45;5.60;;;;;;;15.72;66.06;101244.63;5055348;28;20387;-62
2022/06/22 01:00:33;;;;;;;11.57;5.65;;;;;;;15.65;66.87;101242.00;5055561;28;20029;-62
2022/06/22 01:03:24;;;;;;;8.85;5.40;;;;;;;15.62;66.43;101239.28;5055159;28;20025;-62
2022/06/22 01:05:49;;;;;;;11.73;5.70;;;;;;;15.65;66.69;101234.88;5054647;28;20569;-62
2022/06/22 01:08:32;;;;;;;13.13;6.13;;;;;;;15.63;67.38;101241.06;5055220;28;20032;-62
2022/06/22 01:12:16;;;;;;;7.07;5.50;;;;;;;15.58;67.12;101234.88;5055118;28;20515;-62
2022/06/22 01:13:57;;;;;;;8.73;5.78;;;;;;;15.59;67.50;101228.66;5054696;28;20033;-63
2022/06/22 01:16:34;;;;;;;10.77;5.80;;;;;;;15.59;66.92;101232.22;5054898;28;20025;-62
2022/06/22 01:19:14;;;;;;;11.80;6.13;;;;;;;15.55;68.04;101249.09;5055229;28;20028;-61
2022/06/22 01:21:45;;;;;;;14.23;6.65;;;;;;;15.49;68.95;101255.31;5055016;28;20515;-62
2022/06/22 01:24:52;;;;;;;9.57;6.25;;;;;;;15.57;66.90;101268.63;5054772;28;20029;-62
2022/06/22 01:27:23;;;;;;;12.75;6.43;;;;;;;15.57;67.65;101276.59;5048677;28;20498;-61
2022/06/22 01:29:58;;;;;;;13.00;6.65;;;;;;;15.65;66.94;101266.84;5054884;28;20021;-63
2022/06/22 01:32:35;;;;;;;10.63;5.85;;;;;;;15.65;66.80;101248.22;5054659;28;20491;-62
2022/06/22 01:35:16;;;;;;;10.35;6.05;;;;;;;15.59;66.88;101241.97;5054551;28;20459;-62
2022/06/22 01:37:45;;;;;;;8.15;5.97;;;;;;;15.57;66.78;101241.09;5053050;28;20025;-62
2022/06/22 01:40:20;;;;;;;15.55;6.30;;;;;;;15.59;67.09;101231.31;5054720;28;20117;-62
2022/06/22 01:43:09;;;;;;;9.75;6.55;;;;;;;15.56;67.28;101229.56;5053123;28;20068;-62
2022/06/22 01:45:59;;;;;;;9.88;6.20;;;;;;;15.47;68.03;101211.84;5054736;28;20025;-62
2022/06/22 01:48:34;;;;;;;10.48;6.40;;;;;;;15.29;69.54;101214.56;5054435;28;20029;-62
2022/06/22 01:51:09;;;;;;;12.88;6.75;;;;;;;15.22;69.95;101221.66;5054442;28;20025;-62
2022/06/22 01:53:42;;;;;;;12.38;6.57;;;;;;;15.22;70.09;101221.66;5054042;28;20470;-63
2022/06/22 01:56:19;;;;;;;11.80;6.88;;;;;;;15.19;70.30;101223.44;5054102;28;20033;-62
2022/06/22 01:59:18;;;;;;;10.63;6.22;;;;;;;15.25;69.46;101226.13;5054463;28;20028;-62
2022/06/22 02:02:02;;;;;;;13.07;6.80;;;;;;;15.23;69.96;101230.53;5054102;28;20084;-63
2022/06/22 02:04:30;;;;;;;12.30;6.88;;;;;;;15.28;70.24;101224.31;5054193;28;20513;-62
2022/06/22 02:10:18;;;;;;;10.57;6.55;;;;;;;15.25;70.63;101224.34;5054086;28;20394;-62
2022/06/22 02:13:00;;;;;;;13.43;7.18;;;;;;;15.20;71.08;101233.19;5053850;28;20040;-62
2022/06/22 02:15:38;;;;;;;10.20;6.43;;;;;;;15.22;71.14;101231.44;5054006;28;20025;-62
2022/06/22 02:18:12;;;;;;;12.40;6.47;;;;;;;15.19;71.51;101227.00;5053811;28;20040;-62
2022/06/22 02:20:40;;;;;;;11.18;6.47;;;;;;;15.10;71.42;101220.81;5053583;28;20568;-62
2022/06/22 02:23:07;;;;;;;12.40;6.50;;;;;;;15.07;71.72;101220.81;5053664;28;20036;-62
2022/06/22 02:25:45;;;;;;;11.65;6.53;;;;;;;15.10;71.46;101229.66;5053555;28;20021;-62
2022/06/22 02:28:11;;;;;;;10.95;6.90;;;;;;;15.10;71.61;101229.66;5053540;28;20147;-62
2022/06/22 02:30:37;;;;;;;11.70;6.68;;;;;;;15.14;71.09;101226.13;5053476;28;20466;-62
2022/06/22 02:33:06;;;;;;;10.15;6.60;;;;;;;15.13;72.09;101223.47;5053478;28;20029;-63
2022/06/22 02:35:31;;;;;;;10.18;6.72;;;;;;;15.07;71.81;101200.41;5054443;28;20024;-62
2022/06/22 02:38:05;;;;;;;10.60;6.63;;;;;;;14.99;72.11;101194.22;5053326;28;20562;-62
2022/06/22 02:44:29;;;;;;;8.90;6.68;;;;;;;14.93;72.92;101189.78;5053593;28;20029;-63
2022/06/22 02:46:14;;;;;;;10.63;6.55;;;;;;;14.99;71.72;101189.78;5053717;28;20036;-62
2022/06/22 02:48:41;;;;;;;12.63;6.68;;;;;;;15.04;71.45;101195.09;5053310;28;20021;-62
2022/06/22 02:51:18;;;;;;;12.82;6.80;;;;;;;15.10;71.21;101205.72;5053235;28;20032;-62
2022/06/22 02:53:45;;;;;;;14.95;6.82;;;;;;;15.13;71.44;101196.84;5053127;28;20083;-63
2022/06/22 02:56:20;;;;;;;11.00;6.70;;;;;;;15.10;71.14;101200.41;5053047;28;20154;-62
2022/06/22 02:58:45;;;;;;;13.50;7.30;;;;;;;15.11;71.75;101196.84;5053040;28;20536;-62
2022/06/22 03:01:17;;;;;;;9.85;6.93;;;;;;;15.15;70.96;101211.03;5053138;28;20100;-62
2022/06/22 03:03:49;;;;;;;10.82;7.28;;;;;;;15.22;70.68;101207.47;5053283;28;20028;-62
2022/06/22 03:06:16;;;;;;;12.60;7.18;;;;;;;15.17;70.79;101214.59;5053249;28;20025;-62
2022/06/22 03:08:42;;;;;;;11.93;6.80;;;;;;;15.10;70.65;101218.16;5055633;28;20033;-62
2022/06/22 03:11:10;;;;;;;9.88;6.80;;;;;;;15.06;70.53;101219.03;5057486;28;20029;-62
2022/06/22 03:13:39;;;;;;;11.65;6.68;;;;;;;15.04;70.68;101219.06;5057327;28;20029;-62
2022/06/22 03:16:07;;;;;;;13.27;7.28;;;;;;;15.01;71.13;101219.03;5057551;28;20471;-62
2022/06/22 03:18:42;;;;;;;12.23;6.75;;;;;;;14.98;70.79;101217.25;5057179;28;20029;-63
2022/06/22 03:21:12;;;;;;;11.40;7.07;;;;;;;14.96;70.55;101212.84;5056891;28;20092;-62
2022/06/22 03:23:49;;;;;;;10.85;6.65;;;;;;;14.98;70.17;101211.06;5056994;28;20048;-62
2022/06/22 03:26:19;;;;;;;12.45;7.00;;;;;;;14.95;69.86;101201.31;5057257;28;20447;-63
2022/06/22 03:28:51;;;;;;;11.70;7.50;;;;;;;14.91;70.79;101201.34;5056612;28;20493;-62
2022/06/22 03:31:23;;;;;;;11.88;7.50;;;;;;;14.88;70.90;101198.66;5056945;28;20036;-63
2022/06/22 03:33:55;;;;;;;12.40;7.50;;;;;;;14.84;71.19;101194.25;5057067;28;20021;-63
2022/06/22 03:36:31;;;;;;;11.10;7.72;;;;;;;14.78;71.47;101205.78;5057052;28;20505;-62
2022/06/22 03:39:05;;;;;;;14.30;7.53;;;;;;;14.75;71.23;101201.34;5056946;28;20025;-62
2022/06/22 03:41:34;;;;;;;15.30;7.75;;;;;;;14.72;71.80;101196.00;5056874;28;20067;-62
2022/06/22 03:44:11;;;;;;;12.23;8.23;;;;;;;14.69;72.09;101197.81;5056454;28;20017;-62
2022/06/22 03:46:55;;;;;;;11.10;7.53;;;;;;;14.74;71.58;101198.69;5056873;28;20094;-62
2022/06/22 03:49:44;;;;;;;11.70;7.80;;;;;;;14.68;72.07;101194.25;5056827;28;20032;-62
2022/06/22 03:52:18;;;;;;;15.35;8.18;;;;;;;14.68;72.19;101193.34;5056610;28;20033;-62
2022/06/22 03:54:51;;;;;;;13.65;8.63;;;;;;;14.62;72.74;101188.06;5056674;28;20086;-63
2022/06/22 03:57:21;;;;;;;12.32;8.25;;;;;;;14.61;72.71;101194.25;5056676;28;20039;-62
2022/06/22 03:59:47;;;;;;;10.82;8.00;;;;;;;14.57;73.28;101184.50;5056409;28;20459;-62
2022/06/22 04:02:14;;;;;;;11.13;7.78;;;;;;;14.50;73.92;101186.28;5056267;28;20100;-62
2022/06/22 04:04:40;;;;;;;13.35;8.35;;;;;;;14.51;73.79;101186.25;5056228;28;20025;-62
2022/06/22 04:07:06;;;;;;;12.90;8.85;;;;;;;14.52;73.90;101184.50;5056066;28;20103;-62
2022/06/22 04:09:32;;;;;;;10.45;8.05;;;;;;;14.46;74.19;101185.34;5056311;28;20083;-63
2022/06/22 04:12:10;;;;;;;12.25;8.70;;;;;;;14.46;74.64;101182.69;5056338;28;20025;-62
2022/06/22 04:14:51;;;;;;;14.98;8.80;;;;;;;14.46;74.73;101188.00;5056165;28;20045;-62
2022/06/22 04:17:38;;;;;;;15.15;8.73;;;;;;;14.58;73.80;101186.28;5056033;28;20037;-62
2022/06/22 04:20:23;;;;;;;12.68;8.77;;;;;;;14.60;74.28;101195.13;5056211;28;20075;-62
2022/06/22 04:22:53;;;;;;;22.05;9.00;;;;;;;14.65;74.40;101193.38;5056034;28;20139;-62
2022/06/22 04:25:28;;;;;;;12.60;8.55;;;;;;;14.78;73.63;101190.69;5056141;28;20033;-62
2022/06/22 04:27:56;;;;;;;13.43;9.48;;;;;;;14.84;74.14;101191.56;5055451;28;20080;-62
2022/06/22 04:30:28;;;;;;;16.10;9.55;;;;;;;14.87;74.42;101199.56;5055943;28;20455;-62
2022/06/22 04:33:24;;;;;;;14.57;9.23;;;;;;;14.93;74.30;101196.88;5055963;28;20028;-62
2022/06/22 04:35:56;;;;;;;15.65;9.13;;;;;;;14.96;74.34;101199.53;5056428;28;20729;-62
2022/06/22 04:38:32;;;;;;;11.48;9.05;;;;;;;15.02;74.56;101203.06;5055696;28;20412;-62
2022/06/22 04:41:14;;;;;;;18.45;9.43;;;;;;;15.01;75.13;101208.41;5055534;28;20029;-62
2022/06/22 04:43:40;;;;;;;14.63;10.07;;;;;;;15.10;75.24;101212.81;5055734;28;20075;-62
2022/06/22 04:46:10;;;;;;;17.90;10.02;;;;;;;15.11;75.84;101211.94;5055569;28;20122;-62
2022/06/22 04:48:40;;;;;;;16.25;9.75;;;;;;;15.13;76.17;101210.16;5054074;28;20029;-63
2022/06/22 04:51:11;;;;;;;18.17;10.35;;;;;;;15.17;75.86;101207.50;5055619;28;20021;-62
2022/06/22 04:53:45;;;;;;;16.67;10.00;;;;;;;15.26;75.80;101204.81;5055564;28;20021;-62
2022/06/22 04:56:16;;;;;;;19.02;10.73;;;;;;;15.32;76.09;101206.53;5055647;28;20368;-62
2022/06/22 04:58:55;;;;;;;18.45;11.30;;;;;;;15.42;75.61;101212.75;5055276;28;20031;-62
2022/06/22 05:01:33;;;;;;;15.40;10.38;;;;;;;15.50;75.69;101218.91;5055016;28;20021;-62
2022/06/22 05:04:06;;;;;;;20.67;10.73;;;;;;;15.58;75.66;101227.75;5055338;28;20429;-61
2022/06/22 05:06:45;;;;;;;16.65;10.68;;;;;;;15.72;75.09;101225.09;5055281;28;20032;-62
2022/06/22 05:09:18;;;;;;;14.18;10.57;;;;;;;15.86;75.17;101225.03;5055000;28;20036;-62
2022/06/22 05:11:47;;;;;;;18.67;11.32;;;;;;;15.97;74.78;101225.84;5055012;28;20040;-63
2022/06/22 05:14:20;;;;;;;17.30;11.25;;;;;;;16.08;74.88;101231.13;5054967;28;20036;-62
2022/06/22 05:16:59;;;;;;;15.18;10.48;;;;;;;16.24;74.24;101232.81;5054857;28;20460;-62
2022/06/22 05:19:47;;;;;;;21.50;11.38;;;;;;;16.31;74.91;101239.84;5054863;28;20068;-62
2022/06/22 05:22:14;;;;;;;16.50;10.55;;;;;;;16.46;74.17;101230.88;5054705;28;20029;-62
2022/06/22 05:24:45;;;;;;;18.52;11.02;;;;;;;16.57;74.03;101236.13;5055056;28;20044;-63
2022/06/22 05:27:14;;;;;;;18.25;10.68;;;;;;;16.71;74.29;101239.59;5054826;28;20033;-63
2022/06/22 05:30:05;;;;;;;15.20;10.27;;;;;;;16.92;73.25;101235.88;5054686;28;20048;-62
2022/06/22 05:32:34;;;;;;;18.35;10.65;;;;;;;17.03;72.43;101244.66;5054805;28;20048;-62
2022/06/22 05:35:06;;;;;;;14.93;10.80;;;;;;;17.16;72.48;101234.75;5054863;28;20025;-62
2022/06/22 05:37:34;;;;;;;18.00;11.32;;;;;;;17.24;72.52;101244.44;5054901;28;20025;-62
2022/06/22 05:40:01;;;;;;;15.50;10.77;;;;;;;17.30;72.11;101238.19;5054373;28;20025;-62
2022/06/22 05:42:29;;;;;;;19.23;10.63;;;;;;;17.42;71.49;101239.81;5054643;28;20086;-63
2022/06/22 05:44:55;;;;;;;17.67;10.68;;;;;;;17.58;71.11;101237.84;5054233;28;20041;-62
2022/06/22 05:47:30;;;;;;;18.92;10.77;;;;;;;17.66;70.76;101238.66;5054279;28;20083;-62
2022/06/22 05:50:11;;;;;;;21.67;10.77;;;;;;;17.78;70.65;101246.56;5054363;28;20028;-62
2022/06/22 05:53:25;;;;;;;18.55;10.23;;;;;;;17.93;69.57;101237.44;5054471;28;20029;-62
2022/06/22 05:56:07;;;;;;;17.08;10.13;;;;;;;18.04;68.73;101250.69;5044635;28;20029;-62
2022/06/22 05:58:44;;;;;;;17.57;10.47;;;;;;;18.19;68.91;101256.69;5054422;28;20032;-62
2022/06/22 06:01:20;;;;;;;16.58;9.75;;;;;;;18.46;68.17;101259.88;5054190;28;20021;-62
2022/06/22 06:03:58;;;;;;;16.58;9.20;;;;;;;18.63;65.83;101260.50;5053925;28;20021;-62
2022/06/22 06:06:27;;;;;;;18.33;9.20;;;;;;;18.88;65.82;101263.69;5054212;28;20024;-62
2022/06/22 06:09:01;;;;;;;16.05;9.40;;;;;;;19.04;64.85;101266.97;5053908;28;20031;-62
2022/06/22 06:11:39;;;;;;;16.52;9.43;;;;;;;19.12;65.08;101267.72;5054113;28;20024;-62
2022/06/22 06:14:11;;;;;;;16.70;9.00;;;;;;;19.21;63.60;101272.91;5053923;28;20032;-63
2022/06/22 06:16:46;;;;;;;12.17;8.63;;;;;;;19.36;62.95;101281.63;5054142;28;20017;-62
2022/06/22 06:19:19;;;;;;;16.13;8.32;;;;;;;19.40;62.00;101267.22;5053810;28;20028;-62
2022/06/22 06:21:45;;;;;;;12.93;8.60;;;;;;;19.58;62.11;101272.25;5054114;28;20048;-62
2022/06/22 06:24:35;;;;;;;12.77;8.07;;;;;;;19.79;61.90;101281.69;5053753;28;20033;-62
2022/06/22 06:30:16;;;;;;;13.05;8.57;;;;;;;20.39;60.25;101262.50;5054339;28;20071;-63
2022/06/22 06:32:52;;;;;;;18.48;9.30;;;;;;;20.64;58.82;101275.34;5053435;28;20036;-63
2022/06/22 06:35:33;;;;;;;14.88;8.98;;;;;;;20.82;58.40;101268.66;5053840;28;20071;-62
2022/06/22 06:38:11;;;;;;;15.00;8.43;;;;;;;20.92;57.29;101265.69;5053734;28;20100;-62
2022/06/22 06:41:01;;;;;;;19.27;8.63;;;;;;;21.22;57.00;101272.09;5053309;28;20083;-62
2022/06/22 06:43:37;;;;;;;15.32;7.70;;;;;;;21.36;56.58;101281.63;5052459;28;20072;-62
2022/06/22 06:46:10;;;;;;;12.95;7.60;;;;;;;21.51;54.83;101270.44;5053639;28;20111;-62
2022/06/22 06:48:37;;;;;;;15.55;7.38;;;;;;;21.71;53.84;101273.47;5053464;28;20083;-62
2022/06/22 06:51:05;;;;;;;12.23;8.30;;;;;;;21.79;53.39;101254.41;5053303;28;20113;-62
2022/06/22 06:53:41;;;;;;;13.90;8.13;;;;;;;21.97;54.19;101245.81;5053228;28;20060;-62
2022/06/22 06:56:19;;;;;;;13.15;7.80;;;;;;;22.10;52.41;101242.72;5053216;28;20025;-63
2022/06/22 06:58:50;;;;;;;14.32;7.80;;;;;;;22.34;51.99;101239.28;5053392;28;20059;-62
2022/06/22 07:01:21;;;;;;;14.95;7.70;;;;;;;22.29;51.67;101240.38;5053370;28;20029;-62
2022/06/22 07:03:48;;;;;;;18.20;8.30;;;;;;;22.39;52.11;101237.31;5053444;28;20029;-62
2022/06/22 07:06:13;;;;;;;14.27;8.52;;;;;;;22.49;51.94;101235.25;5053119;28;20052;-62
2022/06/22 07:08:56;;;;;;;16.48;8.50;;;;;;;22.49;51.49;101241.50;5052992;28;20112;-63
2022/06/22 07:11:33;;;;;;;20.35;8.27;;;;;;;22.50;51.13;101229.78;5053233;28;20076;-63
2022/06/22 07:14:27;;;;;;;14.45;8.63;;;;;;;22.61;51.23;101233.94;5053182;28;20070;-62
2022/06/22 07:16:57;;;;;;;11.10;8.20;;;;;;;22.69;50.33;101229.19;5051555;28;20045;-63
2022/06/22 07:19:29;;;;;;;11.48;7.30;;;;;;;22.80;49.98;101235.09;5053077;28;20029;-62
2022/06/22 07:22:23;;;;;;;11.27;7.20;;;;;;;22.98;49.58;101236.31;5053362;28;20037;-62
2022/06/22 07:24:59;;;;;;;15.45;7.13;;;;;;;23.13;49.63;101227.72;5053027;28;20032;-63
2022/06/22 07:27:41;;;;;;;12.77;6.93;;;;;;;23.20;47.92;101226.53;5052798;28;20360;-63
2022/06/22 07:30:26;;;;;;;10.75;6.97;;;;;;;23.22;49.21;101229.19;5053321;28;20131;-63
2022/06/22 07:33:01;;;;;;;11.57;6.50;;;;;;;23.21;47.62;101220.22;5053044;28;20045;-62
2022/06/22 07:35:49;;;;;;;11.57;6.60;;;;;;;23.22;48.67;101213.91;5052852;28;20053;-63
2022/06/22 07:38:49;;;;;;;13.70;6.95;;;;;;;23.12;47.01;101209.75;5052823;28;20032;-63
2022/06/22 07:41:22;;;;;;;12.73;5.85;;;;;;;22.95;47.38;101196.91;5052902;28;20115;-62
2022/06/22 07:43:58;;;;;;;10.30;6.00;;;;;;;23.01;47.46;101194.91;5052720;28;20057;-63
2022/06/22 07:46:30;;;;;;;11.70;6.13;;;;;;;22.94;47.33;101210.41;5053066;28;20060;-62
2022/06/22 07:48:59;;;;;;;;;;;;;;;23.12;47.78;101217.84;5053182;28;20052;-63
2022/06/22 07:51:30;;;;;;;11.35;5.85;;;;;;;23.06;46.81;101223.44;5052957;28;19917;-63
2022/06/22 07:54:32;;;;;;;13.05;6.53;;;;;;;23.16;47.40;101226.69;5053934;28;20021;-63
2022/06/22 07:57:16;;;;;;;;;;;;;;;23.31;47.77;101219.91;5056872;28;20142;-63
2022/06/22 07:59:59;;;;;;;11.60;5.88;;;;;;;23.29;46.90;101219.06;5056262;28;19919;-63
2022/06/22 08:02:32;;;;;;;12.38;5.70;;;;;;;23.19;46.69;101229.28;5056302;28;20041;-63
2022/06/22 08:05:05;;;;;;;10.55;5.80;;;;;;;23.23;47.35;101221.03;5056607;28;20040;-62
2022/06/22 08:08:05;;;;;;;13.50;6.22;;;;;;;23.34;47.34;101215.28;5056520;28;20024;-63
2022/06/22 08:10:44;;;;;;;14.80;6.10;;;;;;;23.35;47.37;101216.16;5034287;28;20045;-63
2022/06/22 08:13:19;;;;;;;9.43;5.68;;;;;;;23.22;46.38;101224.69;5056035;28;21200;-63
2022/06/22 08:15:50;;;;;;;11.45;5.50;;;;;;;23.11;46.01;101229.56;5055998;28;20570;-62
2022/06/22 08:18:18;;;;;;;9.57;5.65;;;;;;;23.20;45.94;101218.44;5056152;28;20025;-62
2022/06/22 08:20:46;;;;;;;14.85;5.53;;;;;;;23.56;45.17;101228.84;5056038;28;20394;-62
2022/06/22 08:23:19;;;;;;;10.80;5.43;;;;;;;23.79;44.37;101221.72;5056063;28;20052;-63
2022/06/22 08:25:46;;;;;;;14.75;5.53;;;;;;;23.92;44.89;101226.59;5055759;28;20563;-62
2022/06/22 08:28:15;;;;;;;12.45;5.45;;;;;;;24.18;43.95;101230.97;5055634;28;20049;-61
2022/06/22 08:30:41;;;;;;;10.73;5.68;;;;;;;24.48;42.92;101228.88;5055823;28;20029;-62
2022/06/22 08:33:11;;;;;;;12.77;4.85;;;;;;;24.65;41.27;101246.22;5055165;28;20180;-62
2022/06/22 08:35:42;;;;;;;9.20;4.90;;;;;;;24.77;41.45;101239.44;5055678;28;20044;-63
2022/06/22 08:38:33;;;;;;;8.18;4.60;;;;;;;25.08;41.53;101237.22;5055569;28;20071;-62
2022/06/22 08:41:31;;;;;;;11.30;4.47;;;;;;;25.51;41.41;101232.59;5055332;28;20122;-62
2022/06/22 08:43:57;;;;;;;8.68;4.50;;;;;;;25.75;37.88;101230.63;5055396;28;20040;-62
2022/06/22 08:46:31;;;;;;;8.52;4.35;;;;;;;25.93;39.06;101237.91;5055453;28;20478;-62
2022/06/22 08:49:18;;;;;;;12.10;4.15;;;;;;;26.21;38.73;101226.63;5056228;28;20029;-62
2022/06/22 08:51:52;;;;;;;8.98;3.60;;;;;;;26.47;37.79;101243.50;5055441;28;20029;-63
2022/06/22 08:54:48;;;;;;;11.60;4.22;;;;;;;26.62;36.45;101236.41;5055363;28;20032;-62
2022/06/22 08:57:33;;;;;;;8.07;4.13;;;;;;;26.78;37.31;101239.25;5055586;28;20024;-63
2022/06/22 09:00:20;;;;;;;6.63;3.90;;;;;;;26.95;36.80;101233.84;5055128;28;20478;-65
2022/06/22 09:02:51;;;;;;;6.25;3.47;;;;;;;27.10;34.65;101227.63;5055359;28;20394;-63
2022/06/22 09:05:37;;;;;;;7.10;3.90;;;;;;;27.32;34.65;101227.38;5054243;28;20040;-63
2022/06/22 09:08:12;;;;;;;7.53;4.03;;;;;;;27.45;34.71;101220.38;5055395;28;20325;-63
2022/06/22 09:11:02;;;;;;;8.15;3.90;;;;;;;27.67;34.80;101213.78;5055048;28;20036;-62
2022/06/22 09:13:54;;;;;;;6.75;3.55;;;;;;;27.98;35.37;101220.25;5054896;28;20068;-63
2022/06/22 09:16:32;;;;;;;7.53;3.72;;;;;;;28.19;33.33;101219.03;5055003;28;20043;-62
2022/06/22 09:19:09;;;;;;;6.70;3.50;;;;;;;28.47;32.90;101223.78;5055627;28;20039;-62
2022/06/22 09:21:58;;;;;;;7.68;3.13;;;;;;;28.78;31.89;101236.47;5055058;28;20060;-63
2022/06/22 09:24:48;;;;;;;7.30;3.17;;;;;;;28.72;32.62;101234.09;5049079;28;20483;-62
2022/06/22 09:27:35;;;;;;;6.55;3.17;;;;;;;28.86;31.34;101242.31;5054949;28;20025;-62
2022/06/22 09:30:14;;;;;;;7.63;2.92;;;;;;;28.79;29.08;101238.22;5054376;28;20045;-63
2022/06/22 09:33:13;;;;;;;8.35;3.05;;;;;;;28.85;30.41;101243.28;5054908;28;20036;-62
2022/06/22 09:36:00;;;;;;;7.35;2.80;;;;;;;28.95;30.60;101236.34;5054896;28;20029;-63
2022/06/22 09:39:04;;;;;;;6.15;2.50;;;;;;;29.22;30.09;101240.22;5054454;28;20032;-62
2022/06/22 09:41:51;;;;;;;6.75;2.83;;;;;;;29.31;29.76;101236.94;5054935;28;20478;-62
2022/06/22 09:44:52;;;;;;;6.95;2.97;;;;;;;29.51;28.49;101247.50;5054584;28;20029;-62
2022/06/22 09:47:28;;;;;;;6.55;2.80;;;;;;;29.54;27.70;101239.09;5054415;28;20036;-62
2022/06/22 09:50:06;;;;;;;5.88;2.70;;;;;;;29.49;28.25;101245.81;5054513;28;20024;-63
2022/06/22 09:52:41;;;;;;;5.63;2.50;;;;;;;29.61;28.47;101239.66;5054255;28;20037;-62
2022/06/22 09:58:04;;;;;;;9.82;3.35;;;;;;;29.69;27.71;101230.00;5054442;28;20519;-63
2022/06/22 10:00:54;;;;;;;7.50;3.10;;;;;;;30.05;27.89;101228.63;5054154;28;20029;-63
2022/06/22 10:03:19;;;;;;;8.05;3.20;;;;;;;30.18;26.87;101235.06;5054135;28;20329;-63
2022/06/22 10:06:13;;;;;;;9.02;3.17;;;;;;;30.29;27.82;101226.19;5054073;28;20115;-62
2022/06/22 10:08:50;;;;;;;7.95;3.28;;;;;;;30.22;28.11;101223.97;5053990;28;20044;-62
2022/06/22 10:11:38;;;;;;;6.03;3.10;;;;;;;30.56;26.72;101222.59;5054231;28;20033;-63
2022/06/22 10:14:34;;;;;;;6.18;3.05;;;;;;;30.73;27.79;101219.63;5053666;28;20035;-63
2022/06/22 10:17:26;;;;;;;7.28;2.80;;;;;;;31.01;26.12;101215.03;5053814;28;20036;-63
2022/06/22 10:20:26;;;;;;;5.80;2.78;;;;;;;31.01;26.58;101220.50;5053379;28;20048;-62
2022/06/22 10:23:20;;;;;;;7.00;3.20;;;;;;;30.87;25.90;101219.56;5053882;28;20028;-63
2022/06/22 10:25:53;;;;;;;10.00;2.70;;;;;;;30.96;26.09;101204.41;5016660;28;20034;-63
2022/06/22 10:28:33;;;;;;;7.22;3.17;;;;;;;31.08;25.34;101189.91;5053538;28;20410;-63
2022/06/22 10:31:22;;;;;;;7.28;2.95;;;;;;;31.31;26.09;101206.59;5053864;28;20449;-63
2022/06/22 10:34:25;;;;;;;6.45;2.90;;;;;;;31.56;25.23;101205.69;5053852;28;20024;-63
2022/06/22 10:37:09;;;;;;;10.73;3.50;;;;;;;31.22;25.30;101201.72;5053689;28;20091;-63
2022/06/22 10:39:46;;;;;;;8.48;3.10;;;;;;;31.25;26.47;101199.66;5053675;28;20044;-63
2022/06/22 10:45:35;;;;;;;11.32;3.40;;;;;;;31.18;26.52;101191.03;5053497;28;20052;-62
2022/06/22 10:48:28;;;;;;;7.55;3.00;;;;;;;31.36;25.65;101193.47;5053062;28;20029;-63
2022/06/22 10:51:24;;;;;;;6.68;3.00;;;;;;;31.39;23.71;101195.97;5053344;28;20483;-63
2022/06/22 10:54:13;;;;;;;6.57;2.90;;;;;;;31.61;24.47;101187.13;5053205;28;20567;-63
2022/06/22 10:56:55;;;;;;;10.15;2.90;;;;;;;31.82;24.79;101185.56;5053436;28;20067;-62
2022/06/22 10:59:32;;;;;;;6.97;2.60;;;;;;;31.81;24.78;101191.13;5053260;28;20029;-63
2022/06/22 11:02:37;;;;;;;6.45;2.80;;;;;;;31.86;24.82;101195.31;5052962;28;20031;-63
2022/06/22 11:05:16;;;;;;;8.00;2.75;;;;;;;32.09;24.45;101187.28;5053235;28;20095;-63
2022/06/22 11:08:00;;;;;;;8.70;3.08;;;;;;;31.85;23.99;101184.47;5053221;28;20036;-63
2022/06/22 11:10:50;;;;;;;7.47;2.97;;;;;;;31.64;25.61;101179.56;5052900;28;20043;-63
2022/06/22 11:13:21;;;;;;;7.72;2.83;;;;;;;31.77;25.04;101175.94;5053219;28;20106;-63
2022/06/22 11:16:01;;;;;;;5.43;2.70;;;;;;;32.10;24.35;101192.63;5053336;28;20025;-63
2022/06/22 11:18:34;;;;;;;8.85;3.08;;;;;;;32.27;23.80;101187.75;5052974;28;20029;-63
2022/06/22 11:21:27;;;;;;;7.65;3.00;;;;;;;32.32;24.20;101177.34;5052798;28;20470;-63
2022/06/22 11:24:11;;;;;;;7.10;2.80;;;;;;;32.27;23.81;101187.75;5052894;28;20032;-64
2022/06/22 11:33:26;;;;;;;7.32;2.70;;;;;;;32.53;22.90;101183.09;5051232;28;20083;-64
2022/06/22 11:36:29;;;;;;;11.60;2.78;;;;;;;32.38;23.00;101190.59;5057305;28;20032;-64
2022/06/22 11:39:20;;;;;;;8.32;2.63;;;;;;;32.13;23.02;101195.13;5056767;28;20031;-64
2022/06/22 11:41:53;;;;;;;5.78;2.55;;;;;;;32.07;24.05;101191.97;5056835;28;20017;-64
2022/06/22 11:44:25;;;;;;;4.03;2.33;;;;;;;32.05;23.89;101180.28;5056690;28;20025;-63
2022/06/22 11:46:52;;;;;;;;;;;;;;;32.53;24.64;101186.69;5057439;28;20083;-63
2022/06/22 11:49:39;;;;;;;6.53;2.75;;;;;;;32.48;23.71;101197.13;5056679;28;19909;-63
2022/06/22 11:52:29;;;;;;;9.30;2.78;;;;;;;32.69;23.03;101197.34;5056800;28;20048;-63
2022/06/22 11:55:16;;;;;;;7.53;2.60;;;;;;;32.79;23.05;101195.63;5056819;28;20035;-64
2022/06/22 11:58:15;;;;;;;5.88;2.38;;;;;;;32.88;23.26;101188.56;5056665;28;20071;-63
2022/06/22 12:01:08;;;;;;;5.68;2.45;;;;;;;32.88;22.54;101186.69;5056686;28;20029;-63
2022/06/22 12:03:46;;;;;;;9.15;2.60;;;;;;;33.03;21.01;101175.59;5056697;28;20060;-64
2022/06/22 12:06:30;;;;;;;5.18;2.00;;;;;;;32.91;22.11;101171.91;5056358;28;20056;-64
2022/06/22 12:08:55;;;;;;;8.30;2.38;;;;;;;33.05;20.54;101177.19;5056497;28;20035;-63
2022/06/22 12:11:43;;;;;;;6.10;2.60;;;;;;;33.08;20.75;101184.31;5056120;28;20025;-64
2022/06/22 12:17:34;;;;;;;5.57;2.28;;;;;;;33.19;20.31;101181.63;5056377;28;20123;-64
2022/06/22 12:20:31;;;;;;;8.27;2.30;;;;;;;33.10;20.04;101172.22;5053666;28;20493;-63
2022/06/22 12:23:15;;;;;;;4.93;2.25;;;;;;;32.90;20.53;101168.31;5056164;28;20032;-64
2022/06/22 12:25:54;;;;;;;5.15;2.30;;;;;;;33.22;20.52;101148.47;5056487;28;20021;-64
2022/06/22 12:28:25;;;;;;;8.63;3.30;;;;;;;33.19;20.25;101154.22;5055633;28;20478;-64
2022/06/22 12:30:56;;;;;;;5.47;2.30;;;;;;;33.28;19.82;101150.75;5056068;28;20047;-63
2022/06/22 12:33:29;;;;;;;4.85;2.35;;;;;;;33.13;20.91;101151.97;5054720;28;20154;-63